sensor_id;sensor_type;location;lat;lon;timestamp;pressure;altitude;pressure_sealevel;temperature
58929;BMP180;44713;53.378;10.022;2023-02-10T00:01:31;102895.00;;;3.30
58929;BMP180;44713;53.378;10.022;2023-02-10T00:03:57;102890.00;;;3.30
58929;BMP180;44713;53.378;10.022;2023-02-10T00:06:24;102906.00;;;3.30
58929;BMP180;44713;53.378;10.022;2023-02-10T00:08:52;102895.00;;;3.30
58929;BMP180;44713;53.378;10.022;2023-02-10T00:11:18;102897.00;;;3.30
58929;BMP180;44713;53.378;10.022;2023-02-10T00:13:44;102907.00;;;3.30
58929;BMP180;44713;53.378;10.022;2023-02-10T00:16:12;102895.00;;;3.30
58929;BMP180;44713;53.378;10.022;2023-02-10T00:18:37;102910.00;;;3.30
58929;BMP180;44713;53.378;10.022;2023-02-10T00:21:07;102902.00;;;3.30
58929;BMP180;44713;53.378;10.022;2023-02-10T00:23:33;102912.00;;;3.30
58929;BMP180;44713;53.378;10.022;2023-02-10T00:26:03;102904.00;;;3.30
58929;BMP180;44713;53.378;10.022;2023-02-10T00:28:28;102910.00;;;3.30
58929;BMP180;44713;53.378;10.022;2023-02-10T00:30:54;102895.00;;;3.30
58929;BMP180;44713;53.378;10.022;2023-02-10T00:33:19;102885.00;;;3.30
58929;BMP180;44713;53.378;10.022;2023-02-10T00:35:44;102897.00;;;3.30
58929;BMP180;44713;53.378;10.022;2023-02-10T00:38:10;102898.00;;;3.30
58929;BMP180;44713;53.378;10.022;2023-02-10T00:40:36;102902.00;;;3.30
58929;BMP180;44713;53.378;10.022;2023-02-10T00:43:01;102891.00;;;3.30
58929;BMP180;44713;53.378;10.022;2023-02-10T00:45:26;102897.00;;;3.30
58929;BMP180;44713;53.378;10.022;2023-02-10T00:47:52;102905.00;;;3.30
58929;BMP180;44713;53.378;10.022;2023-02-10T00:50:18;102905.00;;;3.40
58929;BMP180;44713;53.378;10.022;2023-02-10T00:52:44;102902.00;;;3.40
58929;BMP180;44713;53.378;10.022;2023-02-10T00:55:09;102905.00;;;3.40
58929;BMP180;44713;53.378;10.022;2023-02-10T00:57:34;102895.00;;;3.40
58929;BMP180;44713;53.378;10.022;2023-02-10T01:00:00;102904.00;;;3.40
58929;BMP180;44713;53.378;10.022;2023-02-10T01:02:25;102901.00;;;3.40
58929;BMP180;44713;53.378;10.022;2023-02-10T01:04:50;102907.00;;;3.40
58929;BMP180;44713;53.378;10.022;2023-02-10T01:07:16;102900.00;;;3.30
58929;BMP180;44713;53.378;10.022;2023-02-10T01:09:41;102897.00;;;3.40
58929;BMP180;44713;53.378;10.022;2023-02-10T01:12:07;102905.00;;;3.40
58929;BMP180;44713;53.378;10.022;2023-02-10T01:14:33;102908.00;;;3.40
58929;BMP180;44713;53.378;10.022;2023-02-10T01:16:58;102909.00;;;3.50
58929;BMP180;44713;53.378;10.022;2023-02-10T01:19:23;102901.00;;;3.50
58929;BMP180;44713;53.378;10.022;2023-02-10T01:21:49;102905.00;;;3.50
58929;BMP180;44713;53.378;10.022;2023-02-10T01:24:14;102906.00;;;3.50
58929;BMP180;44713;53.378;10.022;2023-02-10T01:26:39;102913.00;;;3.50
58929;BMP180;44713;53.378;10.022;2023-02-10T01:29:05;102905.00;;;3.40
58929;BMP180;44713;53.378;10.022;2023-02-10T01:31:30;102905.00;;;3.50
58929;BMP180;44713;53.378;10.022;2023-02-10T01:33:56;102911.00;;;3.40
58929;BMP180;44713;53.378;10.022;2023-02-10T01:36:24;102905.00;;;3.40
58929;BMP180;44713;53.378;10.022;2023-02-10T01:38:50;102909.00;;;3.50
58929;BMP180;44713;53.378;10.022;2023-02-10T01:41:20;102909.00;;;3.50
58929;BMP180;44713;53.378;10.022;2023-02-10T01:43:57;102901.00;;;3.50
58929;BMP180;44713;53.378;10.022;2023-02-10T01:46:24;102903.00;;;3.50
58929;BMP180;44713;53.378;10.022;2023-02-10T01:48:51;102905.00;;;3.50
58929;BMP180;44713;53.378;10.022;2023-02-10T01:51:18;102905.00;;;3.50
58929;BMP180;44713;53.378;10.022;2023-02-10T01:53:44;102901.00;;;3.50
58929;BMP180;44713;53.378;10.022;2023-02-10T01:56:12;102910.00;;;3.50
58929;BMP180;44713;53.378;10.022;2023-02-10T01:58:39;102905.00;;;3.50
58929;BMP180;44713;53.378;10.022;2023-02-10T02:01:07;102896.00;;;3.50
58929;BMP180;44713;53.378;10.022;2023-02-10T02:03:32;102903.00;;;3.50
58929;BMP180;44713;53.378;10.022;2023-02-10T02:05:58;102909.00;;;3.60
58929;BMP180;44713;53.378;10.022;2023-02-10T02:08:28;102905.00;;;3.60
58929;BMP180;44713;53.378;10.022;2023-02-10T02:11:18;102905.00;;;3.60
58929;BMP180;44713;53.378;10.022;2023-02-10T02:19:15;102895.00;;;3.60
58929;BMP180;44713;53.378;10.022;2023-02-10T02:24:27;102904.00;;;3.70
58929;BMP180;44713;53.378;10.022;2023-02-10T02:30:36;102907.00;;;3.70
58929;BMP180;44713;53.378;10.022;2023-02-10T02:33:27;102915.00;;;3.80
58929;BMP180;44713;53.378;10.022;2023-02-10T02:36:19;102901.00;;;3.80
58929;BMP180;44713;53.378;10.022;2023-02-10T02:38:45;102909.00;;;3.80
58929;BMP180;44713;53.378;10.022;2023-02-10T02:41:11;102910.00;;;3.80
58929;BMP180;44713;53.378;10.022;2023-02-10T02:43:37;102904.00;;;3.80
58929;BMP180;44713;53.378;10.022;2023-02-10T02:46:25;102903.00;;;3.80
58929;BMP180;44713;53.378;10.022;2023-02-10T02:49:13;102901.00;;;3.80
58929;BMP180;44713;53.378;10.022;2023-02-10T02:51:51;102910.00;;;3.80
58929;BMP180;44713;53.378;10.022;2023-02-10T02:54:23;102897.00;;;3.80
58929;BMP180;44713;53.378;10.022;2023-02-10T02:56:50;102900.00;;;3.70
58929;BMP180;44713;53.378;10.022;2023-02-10T03:02:13;102909.00;;;3.80
58929;BMP180;44713;53.378;10.022;2023-02-10T03:04:41;102905.00;;;3.70
58929;BMP180;44713;53.378;10.022;2023-02-10T03:07:07;102896.00;;;3.70
58929;BMP180;44713;53.378;10.022;2023-02-10T03:09:33;102898.00;;;3.70
58929;BMP180;44713;53.378;10.022;2023-02-10T03:11:58;102891.00;;;3.70
58929;BMP180;44713;53.378;10.022;2023-02-10T03:14:24;102895.00;;;3.70
58929;BMP180;44713;53.378;10.022;2023-02-10T03:16:49;102889.00;;;3.70
58929;BMP180;44713;53.378;10.022;2023-02-10T03:19:15;102886.00;;;3.70
58929;BMP180;44713;53.378;10.022;2023-02-10T03:21:40;102883.00;;;3.60
58929;BMP180;44713;53.378;10.022;2023-02-10T03:24:06;102889.00;;;3.60
58929;BMP180;44713;53.378;10.022;2023-02-10T03:26:34;102883.00;;;3.60
58929;BMP180;44713;53.378;10.022;2023-02-10T03:28:59;102887.00;;;3.60
58929;BMP180;44713;53.378;10.022;2023-02-10T03:31:25;102891.00;;;3.50
58929;BMP180;44713;53.378;10.022;2023-02-10T03:33:50;102890.00;;;3.60
58929;BMP180;44713;53.378;10.022;2023-02-10T03:36:15;102896.00;;;3.60
58929;BMP180;44713;53.378;10.022;2023-02-10T03:38:41;102886.00;;;3.60
58929;BMP180;44713;53.378;10.022;2023-02-10T03:41:07;102885.00;;;3.60
58929;BMP180;44713;53.378;10.022;2023-02-10T03:43:32;102887.00;;;3.70
58929;BMP180;44713;53.378;10.022;2023-02-10T03:46:02;102879.00;;;3.60
58929;BMP180;44713;53.378;10.022;2023-02-10T03:48:28;102889.00;;;3.60
58929;BMP180;44713;53.378;10.022;2023-02-10T03:50:58;102886.00;;;3.50
58929;BMP180;44713;53.378;10.022;2023-02-10T03:53:24;102895.00;;;3.50
58929;BMP180;44713;53.378;10.022;2023-02-10T03:55:49;102902.00;;;3.50
58929;BMP180;44713;53.378;10.022;2023-02-10T03:58:15;102906.00;;;3.50
58929;BMP180;44713;53.378;10.022;2023-02-10T04:00:40;102912.00;;;3.50
58929;BMP180;44713;53.378;10.022;2023-02-10T04:03:05;102909.00;;;3.50
58929;BMP180;44713;53.378;10.022;2023-02-10T04:05:31;102909.00;;;3.50
58929;BMP180;44713;53.378;10.022;2023-02-10T04:07:56;102899.00;;;3.40
58929;BMP180;44713;53.378;10.022;2023-02-10T04:10:21;102908.00;;;3.50
58929;BMP180;44713;53.378;10.022;2023-02-10T04:12:48;102904.00;;;3.50
58929;BMP180;44713;53.378;10.022;2023-02-10T04:15:13;102902.00;;;3.50
58929;BMP180;44713;53.378;10.022;2023-02-10T04:17:39;102904.00;;;3.40
58929;BMP180;44713;53.378;10.022;2023-02-10T04:20:04;102911.00;;;3.40
58929;BMP180;44713;53.378;10.022;2023-02-10T04:22:30;102913.00;;;3.50
58929;BMP180;44713;53.378;10.022;2023-02-10T04:24:56;102919.00;;;3.50
58929;BMP180;44713;53.378;10.022;2023-02-10T04:27:21;102926.00;;;3.50
58929;BMP180;44713;53.378;10.022;2023-02-10T04:29:47;102928.00;;;3.50
58929;BMP180;44713;53.378;10.022;2023-02-10T04:32:12;102930.00;;;3.50
58929;BMP180;44713;53.378;10.022;2023-02-10T04:34:37;102917.00;;;3.50
58929;BMP180;44713;53.378;10.022;2023-02-10T04:37:03;102922.00;;;3.50
58929;BMP180;44713;53.378;10.022;2023-02-10T04:39:28;102923.00;;;3.50
58929;BMP180;44713;53.378;10.022;2023-02-10T04:41:53;102933.00;;;3.50
58929;BMP180;44713;53.378;10.022;2023-02-10T04:44:19;102934.00;;;3.50
58929;BMP180;44713;53.378;10.022;2023-02-10T04:46:44;102931.00;;;3.50
58929;BMP180;44713;53.378;10.022;2023-02-10T04:49:10;102929.00;;;3.50
58929;BMP180;44713;53.378;10.022;2023-02-10T04:51:35;102929.00;;;3.50
58929;BMP180;44713;53.378;10.022;2023-02-10T04:54:00;102926.00;;;3.50
58929;BMP180;44713;53.378;10.022;2023-02-10T04:56:26;102922.00;;;3.50
58929;BMP180;44713;53.378;10.022;2023-02-10T04:58:51;102926.00;;;3.50
58929;BMP180;44713;53.378;10.022;2023-02-10T05:01:17;102923.00;;;3.50
58929;BMP180;44713;53.378;10.022;2023-02-10T05:03:42;102931.00;;;3.50
58929;BMP180;44713;53.378;10.022;2023-02-10T05:06:09;102929.00;;;3.50
58929;BMP180;44713;53.378;10.022;2023-02-10T05:08:35;102934.00;;;3.50
58929;BMP180;44713;53.378;10.022;2023-02-10T05:11:06;102947.00;;;3.50
58929;BMP180;44713;53.378;10.022;2023-02-10T05:13:31;102951.00;;;3.50
58929;BMP180;44713;53.378;10.022;2023-02-10T05:15:57;102957.00;;;3.50
58929;BMP180;44713;53.378;10.022;2023-02-10T05:18:22;102949.00;;;3.50
58929;BMP180;44713;53.378;10.022;2023-02-10T05:20:47;102951.00;;;3.50
58929;BMP180;44713;53.378;10.022;2023-02-10T05:23:13;102951.00;;;3.50
58929;BMP180;44713;53.378;10.022;2023-02-10T05:25:38;102950.00;;;3.50
58929;BMP180;44713;53.378;10.022;2023-02-10T05:28:03;102948.00;;;3.40
58929;BMP180;44713;53.378;10.022;2023-02-10T05:30:29;102947.00;;;3.50
58929;BMP180;44713;53.378;10.022;2023-02-10T05:32:54;102957.00;;;3.40
58929;BMP180;44713;53.378;10.022;2023-02-10T05:35:20;102959.00;;;3.50
58929;BMP180;44713;53.378;10.022;2023-02-10T05:37:45;102971.00;;;3.40
58929;BMP180;44713;53.378;10.022;2023-02-10T05:40:10;102964.00;;;3.50
58929;BMP180;44713;53.378;10.022;2023-02-10T05:42:36;102970.00;;;3.50
58929;BMP180;44713;53.378;10.022;2023-02-10T05:45:01;102975.00;;;3.50
58929;BMP180;44713;53.378;10.022;2023-02-10T05:47:26;102971.00;;;3.50
58929;BMP180;44713;53.378;10.022;2023-02-10T05:49:52;102970.00;;;3.50
58929;BMP180;44713;53.378;10.022;2023-02-10T05:52:17;102972.00;;;3.50
58929;BMP180;44713;53.378;10.022;2023-02-10T05:54:42;102969.00;;;3.50
58929;BMP180;44713;53.378;10.022;2023-02-10T05:57:08;102970.00;;;3.50
58929;BMP180;44713;53.378;10.022;2023-02-10T05:59:33;102976.00;;;3.50
58929;BMP180;44713;53.378;10.022;2023-02-10T06:01:59;102973.00;;;3.50
58929;BMP180;44713;53.378;10.022;2023-02-10T06:04:24;102975.00;;;3.50
58929;BMP180;44713;53.378;10.022;2023-02-10T06:06:50;102981.00;;;3.50
58929;BMP180;44713;53.378;10.022;2023-02-10T06:09:16;102986.00;;;3.50
58929;BMP180;44713;53.378;10.022;2023-02-10T06:11:41;102981.00;;;3.50
58929;BMP180;44713;53.378;10.022;2023-02-10T06:14:07;102979.00;;;3.50
58929;BMP180;44713;53.378;10.022;2023-02-10T06:16:32;102975.00;;;3.50
58929;BMP180;44713;53.378;10.022;2023-02-10T06:18:58;102973.00;;;3.50
58929;BMP180;44713;53.378;10.022;2023-02-10T06:21:23;102989.00;;;3.50
58929;BMP180;44713;53.378;10.022;2023-02-10T06:23:49;102988.00;;;3.60
58929;BMP180;44713;53.378;10.022;2023-02-10T06:26:15;102991.00;;;3.50
58929;BMP180;44713;53.378;10.022;2023-02-10T06:28:40;102993.00;;;3.50
58929;BMP180;44713;53.378;10.022;2023-02-10T06:31:06;103000.00;;;3.60
58929;BMP180;44713;53.378;10.022;2023-02-10T06:33:33;103000.00;;;3.50
58929;BMP180;44713;53.378;10.022;2023-02-10T06:36:01;103012.00;;;3.50
58929;BMP180;44713;53.378;10.022;2023-02-10T06:38:29;103012.00;;;3.50
58929;BMP180;44713;53.378;10.022;2023-02-10T06:40:54;103016.00;;;3.50
58929;BMP180;44713;53.378;10.022;2023-02-10T06:43:19;103014.00;;;3.50
58929;BMP180;44713;53.378;10.022;2023-02-10T06:45:45;103022.00;;;3.40
58929;BMP180;44713;53.378;10.022;2023-02-10T06:48:10;103021.00;;;3.50
58929;BMP180;44713;53.378;10.022;2023-02-10T06:50:35;103017.00;;;3.40
58929;BMP180;44713;53.378;10.022;2023-02-10T06:53:03;103024.00;;;3.50
58929;BMP180;44713;53.378;10.022;2023-02-10T06:55:28;103028.00;;;3.50
58929;BMP180;44713;53.378;10.022;2023-02-10T06:57:58;103028.00;;;3.50
58929;BMP180;44713;53.378;10.022;2023-02-10T07:00:24;103041.00;;;3.40
58929;BMP180;44713;53.378;10.022;2023-02-10T07:02:49;103043.00;;;3.40
58929;BMP180;44713;53.378;10.022;2023-02-10T07:05:14;103048.00;;;3.40
58929;BMP180;44713;53.378;10.022;2023-02-10T07:07:40;103044.00;;;3.40
58929;BMP180;44713;53.378;10.022;2023-02-10T07:10:06;103031.00;;;3.40
58929;BMP180;44713;53.378;10.022;2023-02-10T07:12:31;103038.00;;;3.40
58929;BMP180;44713;53.378;10.022;2023-02-10T07:14:57;103045.00;;;3.40
58929;BMP180;44713;53.378;10.022;2023-02-10T07:17:22;103043.00;;;3.40
58929;BMP180;44713;53.378;10.022;2023-02-10T07:19:48;103041.00;;;3.40
58929;BMP180;44713;53.378;10.022;2023-02-10T07:22:13;103055.00;;;3.40
58929;BMP180;44713;53.378;10.022;2023-02-10T07:24:38;103052.00;;;3.40
58929;BMP180;44713;53.378;10.022;2023-02-10T07:27:04;103067.00;;;3.50
58929;BMP180;44713;53.378;10.022;2023-02-10T07:29:30;103060.00;;;3.40
58929;BMP180;44713;53.378;10.022;2023-02-10T07:31:55;103057.00;;;3.40
58929;BMP180;44713;53.378;10.022;2023-02-10T07:34:23;103061.00;;;3.40
58929;BMP180;44713;53.378;10.022;2023-02-10T07:36:49;103051.00;;;3.50
58929;BMP180;44713;53.378;10.022;2023-02-10T07:39:23;103065.00;;;3.50
58929;BMP180;44713;53.378;10.022;2023-02-10T07:41:49;103071.00;;;3.50
58929;BMP180;44713;53.378;10.022;2023-02-10T07:44:15;103064.00;;;3.50
58929;BMP180;44713;53.378;10.022;2023-02-10T07:46:41;103059.00;;;3.50
58929;BMP180;44713;53.378;10.022;2023-02-10T07:49:06;103059.00;;;3.50
58929;BMP180;44713;53.378;10.022;2023-02-10T07:51:31;103062.00;;;3.50
58929;BMP180;44713;53.378;10.022;2023-02-10T07:53:57;103067.00;;;3.50
58929;BMP180;44713;53.378;10.022;2023-02-10T07:56:22;103066.00;;;3.50
58929;BMP180;44713;53.378;10.022;2023-02-10T07:58:48;103064.00;;;3.50
58929;BMP180;44713;53.378;10.022;2023-02-10T08:01:13;103065.00;;;3.50
58929;BMP180;44713;53.378;10.022;2023-02-10T08:03:39;103073.00;;;3.60
58929;BMP180;44713;53.378;10.022;2023-02-10T08:06:05;103068.00;;;3.60
58929;BMP180;44713;53.378;10.022;2023-02-10T08:08:31;103054.00;;;3.70
58929;BMP180;44713;53.378;10.022;2023-02-10T08:10:56;103062.00;;;3.70
58929;BMP180;44713;53.378;10.022;2023-02-10T08:13:22;103054.00;;;3.60
58929;BMP180;44713;53.378;10.022;2023-02-10T08:15:47;103058.00;;;3.60
58929;BMP180;44713;53.378;10.022;2023-02-10T08:18:13;103051.00;;;3.60
58929;BMP180;44713;53.378;10.022;2023-02-10T08:20:39;103054.00;;;3.60
58929;BMP180;44713;53.378;10.022;2023-02-10T08:23:06;103056.00;;;3.70
58929;BMP180;44713;53.378;10.022;2023-02-10T08:25:32;103052.00;;;3.70
58929;BMP180;44713;53.378;10.022;2023-02-10T08:27:58;103066.00;;;3.70
58929;BMP180;44713;53.378;10.022;2023-02-10T08:30:24;103059.00;;;3.70
58929;BMP180;44713;53.378;10.022;2023-02-10T08:32:49;103060.00;;;3.70
58929;BMP180;44713;53.378;10.022;2023-02-10T08:35:16;103053.00;;;3.80
58929;BMP180;44713;53.378;10.022;2023-02-10T08:37:42;103055.00;;;3.80
58929;BMP180;44713;53.378;10.022;2023-02-10T08:40:08;103050.00;;;3.80
58929;BMP180;44713;53.378;10.022;2023-02-10T08:42:34;103051.00;;;3.90
58929;BMP180;44713;53.378;10.022;2023-02-10T08:44:59;103048.00;;;3.90
58929;BMP180;44713;53.378;10.022;2023-02-10T08:47:25;103057.00;;;3.90
58929;BMP180;44713;53.378;10.022;2023-02-10T08:49:50;103048.00;;;3.90
58929;BMP180;44713;53.378;10.022;2023-02-10T08:52:15;103053.00;;;3.90
58929;BMP180;44713;53.378;10.022;2023-02-10T08:54:41;103067.00;;;3.90
58929;BMP180;44713;53.378;10.022;2023-02-10T08:57:07;103076.00;;;4.00
58929;BMP180;44713;53.378;10.022;2023-02-10T08:59:33;103077.00;;;4.10
58929;BMP180;44713;53.378;10.022;2023-02-10T09:01:58;103080.00;;;4.10
58929;BMP180;44713;53.378;10.022;2023-02-10T09:04:23;103081.00;;;4.00
58929;BMP180;44713;53.378;10.022;2023-02-10T09:06:49;103083.00;;;4.10
58929;BMP180;44713;53.378;10.022;2023-02-10T09:09:18;103095.00;;;4.10
58929;BMP180;44713;53.378;10.022;2023-02-10T09:11:45;103082.00;;;4.10
58929;BMP180;44713;53.378;10.022;2023-02-10T09:14:10;103089.00;;;4.10
58929;BMP180;44713;53.378;10.022;2023-02-10T09:16:36;103080.00;;;4.20
58929;BMP180;44713;53.378;10.022;2023-02-10T09:19:02;103087.00;;;4.10
58929;BMP180;44713;53.378;10.022;2023-02-10T09:21:27;103084.00;;;4.10
58929;BMP180;44713;53.378;10.022;2023-02-10T09:23:53;103093.00;;;4.20
58929;BMP180;44713;53.378;10.022;2023-02-10T09:26:18;103088.00;;;4.10
58929;BMP180;44713;53.378;10.022;2023-02-10T09:28:44;103086.00;;;4.20
58929;BMP180;44713;53.378;10.022;2023-02-10T09:31:12;103093.00;;;4.20
58929;BMP180;44713;53.378;10.022;2023-02-10T09:33:37;103085.00;;;4.20
58929;BMP180;44713;53.378;10.022;2023-02-10T09:36:04;103089.00;;;4.30
58929;BMP180;44713;53.378;10.022;2023-02-10T09:38:30;103084.00;;;4.30
58929;BMP180;44713;53.378;10.022;2023-02-10T09:44:23;103083.00;;;4.40
58929;BMP180;44713;53.378;10.022;2023-02-10T09:53:08;103079.00;;;4.50
58929;BMP180;44713;53.378;10.022;2023-02-10T09:58:21;103077.00;;;4.50
58929;BMP180;44713;53.378;10.022;2023-02-10T10:00:54;103077.00;;;4.60
58929;BMP180;44713;53.378;10.022;2023-02-10T10:03:34;103065.00;;;4.60
58929;BMP180;44713;53.378;10.022;2023-02-10T10:06:14;103076.00;;;4.60
58929;BMP180;44713;53.378;10.022;2023-02-10T10:09:05;103072.00;;;4.70
58929;BMP180;44713;53.378;10.022;2023-02-10T10:11:51;103070.00;;;4.70
58929;BMP180;44713;53.378;10.022;2023-02-10T10:14:23;103076.00;;;4.80
58929;BMP180;44713;53.378;10.022;2023-02-10T10:22:38;103082.00;;;5.00
58929;BMP180;44713;53.378;10.022;2023-02-10T10:25:21;103089.00;;;5.00
58929;BMP180;44713;53.378;10.022;2023-02-10T10:30:43;103086.00;;;5.00
58929;BMP180;44713;53.378;10.022;2023-02-10T10:33:21;103086.00;;;5.20
58929;BMP180;44713;53.378;10.022;2023-02-10T10:35:48;103088.00;;;5.10
58929;BMP180;44713;53.378;10.022;2023-02-10T10:38:27;103083.00;;;5.20
58929;BMP180;44713;53.378;10.022;2023-02-10T10:40:59;103079.00;;;5.30
58929;BMP180;44713;53.378;10.022;2023-02-10T10:43:30;103080.00;;;5.50
58929;BMP180;44713;53.378;10.022;2023-02-10T10:46:05;103072.00;;;5.50
58929;BMP180;44713;53.378;10.022;2023-02-10T10:48:32;103077.00;;;5.60
58929;BMP180;44713;53.378;10.022;2023-02-10T10:51:01;103079.00;;;5.80
58929;BMP180;44713;53.378;10.022;2023-02-10T10:53:36;103071.00;;;5.90
58929;BMP180;44713;53.378;10.022;2023-02-10T10:56:06;103070.00;;;6.00
58929;BMP180;44713;53.378;10.022;2023-02-10T10:58:38;103066.00;;;6.20
58929;BMP180;44713;53.378;10.022;2023-02-10T11:01:05;103066.00;;;6.50
58929;BMP180;44713;53.378;10.022;2023-02-10T11:03:31;103060.00;;;6.70
58929;BMP180;44713;53.378;10.022;2023-02-10T11:06:12;103061.00;;;6.90
58929;BMP180;44713;53.378;10.022;2023-02-10T11:09:06;103047.00;;;6.80
58929;BMP180;44713;53.378;10.022;2023-02-10T11:11:43;103045.00;;;6.90
58929;BMP180;44713;53.378;10.022;2023-02-10T11:14:17;103051.00;;;7.00
58929;BMP180;44713;53.378;10.022;2023-02-10T11:16:54;103049.00;;;7.00
58929;BMP180;44713;53.378;10.022;2023-02-10T11:19:28;103036.00;;;6.90
58929;BMP180;44713;53.378;10.022;2023-02-10T11:21:54;103035.00;;;7.10
58929;BMP180;44713;53.378;10.022;2023-02-10T11:24:21;103032.00;;;7.20
58929;BMP180;44713;53.378;10.022;2023-02-10T11:27:04;103038.00;;;7.20
58929;BMP180;44713;53.378;10.022;2023-02-10T11:29:32;103027.00;;;7.20
58929;BMP180;44713;53.378;10.022;2023-02-10T11:31:59;103014.00;;;7.30
58929;BMP180;44713;53.378;10.022;2023-02-10T11:34:42;103010.00;;;7.40
58929;BMP180;44713;53.378;10.022;2023-02-10T11:37:28;103021.00;;;7.50
58929;BMP180;44713;53.378;10.022;2023-02-10T11:39:56;103015.00;;;7.60
58929;BMP180;44713;53.378;10.022;2023-02-10T11:42:25;103013.00;;;7.60
58929;BMP180;44713;53.378;10.022;2023-02-10T11:47:26;103009.00;;;7.70
58929;BMP180;44713;53.378;10.022;2023-02-10T11:49:52;103001.00;;;7.70
58929;BMP180;44713;53.378;10.022;2023-02-10T11:52:20;103003.00;;;7.70
58929;BMP180;44713;53.378;10.022;2023-02-10T11:54:48;103010.00;;;7.80
58929;BMP180;44713;53.378;10.022;2023-02-10T12:00:22;103005.00;;;8.00
58929;BMP180;44713;53.378;10.022;2023-02-10T12:08:04;102990.00;;;8.10
58929;BMP180;44713;53.378;10.022;2023-02-10T12:10:53;102996.00;;;8.30
58929;BMP180;44713;53.378;10.022;2023-02-10T12:16:34;102992.00;;;8.10
58929;BMP180;44713;53.378;10.022;2023-02-10T12:19:04;102994.00;;;8.30
58929;BMP180;44713;53.378;10.022;2023-02-10T12:21:51;102990.00;;;8.40
58929;BMP180;44713;53.378;10.022;2023-02-10T12:27:33;102979.00;;;8.40
58929;BMP180;44713;53.378;10.022;2023-02-10T12:32:58;102970.00;;;8.40
58929;BMP180;44713;53.378;10.022;2023-02-10T12:35:55;102973.00;;;8.30
58929;BMP180;44713;53.378;10.022;2023-02-10T12:38:55;102966.00;;;8.30
58929;BMP180;44713;53.378;10.022;2023-02-10T12:41:38;102962.00;;;8.10
58929;BMP180;44713;53.378;10.022;2023-02-10T12:44:15;102972.00;;;8.10
58929;BMP180;44713;53.378;10.022;2023-02-10T12:47:51;102944.00;;;8.00
58929;BMP180;44713;53.378;10.022;2023-02-10T12:52:32;102955.00;;;8.10
58929;BMP180;44713;53.378;10.022;2023-02-10T12:55:16;102928.00;;;8.00
58929;BMP180;44713;53.378;10.022;2023-02-10T12:57:51;102931.00;;;8.10
58929;BMP180;44713;53.378;10.022;2023-02-10T13:00:26;102931.00;;;8.20
58929;BMP180;44713;53.378;10.022;2023-02-10T13:02:59;102935.00;;;8.20
58929;BMP180;44713;53.378;10.022;2023-02-10T13:05:48;102942.00;;;8.10
58929;BMP180;44713;53.378;10.022;2023-02-10T13:08:19;102937.00;;;8.00
58929;BMP180;44713;53.378;10.022;2023-02-10T13:10:51;102943.00;;;7.90
58929;BMP180;44713;53.378;10.022;2023-02-10T13:13:25;102935.00;;;7.90
58929;BMP180;44713;53.378;10.022;2023-02-10T13:18:30;102936.00;;;7.90
58929;BMP180;44713;53.378;10.022;2023-02-10T13:21:04;102933.00;;;7.90
58929;BMP180;44713;53.378;10.022;2023-02-10T13:23:39;102938.00;;;8.10
58929;BMP180;44713;53.378;10.022;2023-02-10T13:29:40;102943.00;;;8.20
58929;BMP180;44713;53.378;10.022;2023-02-10T13:34:50;102932.00;;;8.20
58929;BMP180;44713;53.378;10.022;2023-02-10T13:37:42;102918.00;;;8.30
58929;BMP180;44713;53.378;10.022;2023-02-10T13:40:15;102919.00;;;8.40
58929;BMP180;44713;53.378;10.022;2023-02-10T13:43:02;102918.00;;;8.40
58929;BMP180;44713;53.378;10.022;2023-02-10T13:45:31;102920.00;;;8.30
58929;BMP180;44713;53.378;10.022;2023-02-10T13:48:06;102912.00;;;8.20
58929;BMP180;44713;53.378;10.022;2023-02-10T13:50:48;102905.00;;;8.10
58929;BMP180;44713;53.378;10.022;2023-02-10T13:53:43;102905.00;;;8.10
58929;BMP180;44713;53.378;10.022;2023-02-10T13:58:55;102890.00;;;8.00
58929;BMP180;44713;53.378;10.022;2023-02-10T14:01:45;102875.00;;;8.00
58929;BMP180;44713;53.378;10.022;2023-02-10T14:06:48;102887.00;;;8.10
58929;BMP180;44713;53.378;10.022;2023-02-10T14:09:34;102874.00;;;8.10
58929;BMP180;44713;53.378;10.022;2023-02-10T14:12:04;102879.00;;;8.00
58929;BMP180;44713;53.378;10.022;2023-02-10T14:14:36;102877.00;;;8.00
58929;BMP180;44713;53.378;10.022;2023-02-10T14:19:43;102864.00;;;8.00
58929;BMP180;44713;53.378;10.022;2023-02-10T14:24:47;102888.00;;;7.90
58929;BMP180;44713;53.378;10.022;2023-02-10T14:27:14;102883.00;;;7.80
58929;BMP180;44713;53.378;10.022;2023-02-10T14:29:44;102870.00;;;7.80
58929;BMP180;44713;53.378;10.022;2023-02-10T14:32:13;102873.00;;;7.80
58929;BMP180;44713;53.378;10.022;2023-02-10T14:34:39;102872.00;;;7.80
58929;BMP180;44713;53.378;10.022;2023-02-10T14:37:19;102879.00;;;7.80
58929;BMP180;44713;53.378;10.022;2023-02-10T14:40:04;102872.00;;;7.80
58929;BMP180;44713;53.378;10.022;2023-02-10T14:42:31;102862.00;;;7.80
58929;BMP180;44713;53.378;10.022;2023-02-10T14:44:58;102864.00;;;7.80
58929;BMP180;44713;53.378;10.022;2023-02-10T14:47:32;102859.00;;;7.80
58929;BMP180;44713;53.378;10.022;2023-02-10T14:49:58;102853.00;;;7.80
58929;BMP180;44713;53.378;10.022;2023-02-10T14:52:35;102854.00;;;7.80
58929;BMP180;44713;53.378;10.022;2023-02-10T14:55:17;102853.00;;;7.70
58929;BMP180;44713;53.378;10.022;2023-02-10T14:57:46;102864.00;;;7.60
58929;BMP180;44713;53.378;10.022;2023-02-10T15:00:12;102855.00;;;7.60
58929;BMP180;44713;53.378;10.022;2023-02-10T15:02:38;102859.00;;;7.50
58929;BMP180;44713;53.378;10.022;2023-02-10T15:05:07;102850.00;;;7.50
58929;BMP180;44713;53.378;10.022;2023-02-10T15:07:37;102855.00;;;7.50
58929;BMP180;44713;53.378;10.022;2023-02-10T15:10:27;102850.00;;;7.30
58929;BMP180;44713;53.378;10.022;2023-02-10T15:12:55;102844.00;;;7.20
58929;BMP180;44713;53.378;10.022;2023-02-10T15:15:59;102838.00;;;7.20
58929;BMP180;44713;53.378;10.022;2023-02-10T15:18:27;102837.00;;;7.20
58929;BMP180;44713;53.378;10.022;2023-02-10T15:20:59;102837.00;;;7.20
58929;BMP180;44713;53.378;10.022;2023-02-10T15:23:25;102846.00;;;7.20
58929;BMP180;44713;53.378;10.022;2023-02-10T15:29:13;102835.00;;;7.20